Spring Valley, Illinois
Current Conditions -  °F | °C
As of 2:15 AM on Sunday 21 Dec 2014 (Local Time) from KVYS Reporting Station
Overcast Overcast  
Wind Chill: 26°   Ceiling: 3300
Heat Index: 33°   Visibility: 7mi
Dew Point: 31°   Wind: 9mph
Humidity: 90%   Direction: 180°S
Pressure: 30.23"   Gusts: NA
Location:  41.33°N, 89.2°W
Report Text: KVYS 210815Z AUTO 18008KT 7SM OVC033 01/M01 A3023 RMK AO2 T00081007
Loading
Personal Weather Stations






























Interactive Weather Map New forecast layout! Learn more

10-Day Weather Forecast

Advertisements
Track Severe Weather on mobile